Time;durP1;ratioP1;P1;durP2;ratioP2;P2;SDS_P1;SDS_P2;PMS_P1;PMS_P2;Temp;Humidity;BMP_temperature;BMP_pressure;BME280_temperature;BME280_humidity;BME280_pressure;Samples;Min_cycle;Max_cycle;Signal;HPM_P1;HPM_P2
2023/07/13 00:00:26;;;;;;;6.00;2.60;;;;;;;;;;110482;1276;22420;-80
2023/07/13 00:03:13;;;;;;;8.30;3.00;;;;;;;;;;110398;1275;22816;-80
2023/07/13 00:05:42;;;;;;;6.60;3.00;;;;;;;;;;110468;1276;22113;-80
2023/07/13 00:08:12;;;;;;;8.20;2.90;;;;;;;;;;110880;1256;22928;-80
2023/07/13 00:10:40;;;;;;;9.00;3.20;;;;;;;;;;110488;1276;22142;-80
2023/07/13 00:13:10;;;;;;;8.50;3.10;;;;;;;;;;110453;1275;22571;-80
2023/07/13 00:15:37;;;;;;;7.30;3.20;;;;;;;;;;110329;1276;22257;-80
2023/07/13 00:18:03;;;;;;;7.20;3.00;;;;;;;;;;110581;1254;22100;-80
2023/07/13 00:20:30;;;;;;;7.50;2.70;;;;;;;;;;110341;1276;22115;-80
2023/07/13 00:23:00;;;;;;;11.10;3.00;;;;;;;;;;110322;1276;22116;-80
2023/07/13 00:25:28;;;;;;;7.30;2.60;;;;;;;;;;110334;1276;22099;-80
2023/07/13 00:27:55;;;;;;;9.00;2.80;;;;;;;;;;110539;1260;22140;-80
2023/07/13 00:30:22;;;;;;;8.50;3.10;;;;;;;;;;110459;1276;22091;-80
2023/07/13 00:32:49;;;;;;;7.00;3.00;;;;;;;;;;110468;1275;22069;-80
2023/07/13 00:35:16;;;;;;;7.00;2.80;;;;;;;;;;110353;1275;22102;-80
2023/07/13 00:45:15;;;;;;;6.40;2.40;;;;;;;;;;109956;1282;21661;-80
2023/07/13 00:47:45;;;;;;;9.00;2.70;;;;;;;;;;110104;1261;22153;-80
2023/07/13 00:50:16;;;;;;;8.90;2.60;;;;;;;;;;109957;1283;22210;-80
2023/07/13 00:52:44;;;;;;;6.40;2.10;;;;;;;;;;109954;1282;22161;-80
2023/07/13 00:55:12;;;;;;;7.40;2.50;;;;;;;;;;110012;1283;22137;-80
2023/07/13 00:57:43;;;;;;;7.10;2.60;;;;;;;;;;109940;1265;22144;-80
2023/07/13 01:00:19;;;;;;;7.70;2.60;;;;;;;;;;109963;1283;22047;-81
2023/07/13 01:09:51;;;;;;;8.60;2.70;;;;;;;;;;109768;1270;22598;-80
2023/07/13 01:12:21;;;;;;;6.40;2.60;;;;;;;;;;110011;1282;22975;-80
2023/07/13 01:14:47;;;;;;;7.00;2.50;;;;;;;;;;110035;1282;22133;-80
2023/07/13 01:17:15;;;;;;;7.50;2.70;;;;;;;;;;110042;1282;22893;-80
2023/07/13 01:19:43;;;;;;;7.70;2.50;;;;;;;;;;109985;1263;22457;-80
2023/07/13 01:22:12;;;;;;;6.00;2.70;;;;;;;;;;109977;1281;22828;-80
2023/07/13 01:24:42;;;;;;;7.70;2.80;;;;;;;;;;110021;1281;22074;-80
2023/07/13 01:27:10;;;;;;;9.00;3.00;;;;;;;;;;109986;1281;22238;-80
2023/07/13 01:29:43;;;;;;;10.90;3.10;;;;;;;;;;109905;1264;22167;-80
2023/07/13 01:32:12;;;;;;;10.00;3.00;;;;;;;;;;110028;1282;22147;-80
2023/07/13 01:34:42;;;;;;;9.60;3.10;;;;;;;;;;109981;1282;22211;-80
2023/07/13 01:37:09;;;;;;;6.50;3.00;;;;;;;;;;110018;1282;22866;-80
2023/07/13 01:39:37;;;;;;;7.90;2.60;;;;;;;;;;110046;1259;22156;-80
2023/07/13 01:42:04;;;;;;;7.50;2.70;;;;;;;;;;110126;1276;22146;-80
2023/07/13 01:44:48;;;;;;;7.50;2.70;;;;;;;;;;110299;1276;22115;-80
2023/07/13 01:47:15;;;;;;;9.50;3.10;;;;;;;;;;110427;1276;22090;-80
2023/07/13 01:49:42;;;;;;;9.30;2.90;;;;;;;;;;110545;1259;22756;-80
2023/07/13 01:52:08;;;;;;;8.70;2.90;;;;;;;;;;110231;1276;22029;-80
2023/07/13 01:54:35;;;;;;;8.40;2.90;;;;;;;;;;110158;1277;23120;-80
2023/07/13 01:57:03;;;;;;;7.30;3.10;;;;;;;;;;110442;1277;22096;-80
2023/07/13 01:59:30;;;;;;;8.00;3.20;;;;;;;;;;110380;1259;22135;-80
2023/07/13 02:01:57;;;;;;;7.40;2.70;;;;;;;;;;110202;1278;22143;-80
2023/07/13 02:04:24;;;;;;;8.30;2.80;;;;;;;;;;110418;1277;22588;-80
2023/07/13 02:06:52;;;;;;;6.10;2.40;;;;;;;;;;110333;1278;22101;-80
2023/07/13 02:09:22;;;;;;;7.40;2.30;;;;;;;;;;110356;1259;22113;-80
2023/07/13 02:11:51;;;;;;;7.40;2.80;;;;;;;;;;110332;1278;22117;-80
2023/07/13 02:14:18;;;;;;;6.60;2.50;;;;;;;;;;110169;1277;22124;-80
2023/07/13 02:16:45;;;;;;;8.90;2.90;;;;;;;;;;110325;1278;22114;-80
2023/07/13 02:19:12;;;;;;;7.20;2.60;;;;;;;;;;110121;1254;22143;-80
2023/07/13 02:21:40;;;;;;;6.30;2.60;;;;;;;;;;110130;1278;22111;-80
2023/07/13 02:24:07;;;;;;;7.20;2.60;;;;;;;;;;110204;1278;21937;-79
2023/07/13 02:26:35;;;;;;;6.40;2.80;;;;;;;;;;110188;1278;22096;-80
2023/07/13 02:29:11;;;;;;;7.00;2.40;;;;;;;;;;110311;1278;22132;-80
2023/07/13 02:31:38;;;;;;;6.90;2.30;;;;;;;;;;110866;1259;22111;-80
2023/07/13 02:34:05;;;;;;;6.70;2.60;;;;;;;;;;110192;1278;22115;-80
2023/07/13 02:36:32;;;;;;;7.00;2.10;;;;;;;;;;110431;1278;22122;-80
2023/07/13 02:39:02;;;;;;;5.60;2.30;;;;;;;;;;110335;1278;22106;-80
2023/07/13 02:41:29;;;;;;;6.30;2.40;;;;;;;;;;110684;1256;22025;-80
2023/07/13 02:44:02;;;;;;;5.00;2.00;;;;;;;;;;110122;1278;21979;-80
2023/07/13 02:46:32;;;;;;;8.00;2.40;;;;;;;;;;110156;1278;22273;-80
2023/07/13 02:48:59;;;;;;;7.90;2.20;;;;;;;;;;110191;1278;22132;-80
2023/07/13 02:51:26;;;;;;;7.10;2.40;;;;;;;;;;110581;1259;22102;-80
2023/07/13 02:53:53;;;;;;;6.10;2.40;;;;;;;;;;110169;1269;22144;-81
2023/07/13 02:56:23;;;;;;;8.20;2.20;;;;;;;;;;110267;1278;22574;-80
2023/07/13 02:58:51;;;;;;;7.50;2.30;;;;;;;;;;110104;1278;22112;-80
2023/07/13 03:01:20;;;;;;;7.80;3.00;;;;;;;;;;110439;1256;22080;-80
2023/07/13 03:03:49;;;;;;;8.20;2.40;;;;;;;;;;110147;1278;22152;-80
2023/07/13 03:06:16;;;;;;;6.20;2.40;;;;;;;;;;110163;1278;22220;-80
2023/07/13 03:08:53;;;;;;;5.70;2.30;;;;;;;;;;110151;1278;22957;-80
2023/07/13 03:11:25;;;;;;;7.80;2.60;;;;;;;;;;110353;1260;22889;-80
2023/07/13 03:13:57;;;;;;;4.30;2.10;;;;;;;;;;110205;1278;22068;-80
2023/07/13 03:16:25;;;;;;;9.00;2.70;;;;;;;;;;110159;1278;22823;-80
2023/07/13 03:18:53;;;;;;;7.00;2.60;;;;;;;;;;110260;1278;22125;-80
2023/07/13 03:21:20;;;;;;;7.70;2.60;;;;;;;;;;110390;1262;22166;-80
2023/07/13 03:23:48;;;;;;;7.10;2.60;;;;;;;;;;110164;1278;22076;-80
2023/07/13 03:26:18;;;;;;;7.10;2.60;;;;;;;;;;110168;1278;22161;-80
2023/07/13 03:28:46;;;;;;;11.00;2.70;;;;;;;;;;110155;1278;22107;-80
2023/07/13 03:31:23;;;;;;;8.00;2.10;;;;;;;;;;110446;1260;22236;-79
2023/07/13 03:33:52;;;;;;;7.00;2.20;;;;;;;;;;110267;1278;22121;-78
2023/07/13 03:36:21;;;;;;;7.50;2.30;;;;;;;;;;110100;1278;22579;-80
2023/07/13 03:38:55;;;;;;;6.40;2.30;;;;;;;;;;110096;1278;22116;-81
2023/07/13 03:41:30;;;;;;;10.60;2.50;;;;;;;;;;110326;1260;22909;-82
2023/07/13 03:43:58;;;;;;;11.40;2.70;;;;;;;;;;110113;1279;22111;-82
2023/07/13 03:46:45;;;;;;;7.10;2.80;;;;;;;;;;110294;1279;22109;-82
2023/07/13 03:49:15;;;;;;;8.40;2.60;;;;;;;;;;110148;1279;22119;-82
2023/07/13 03:51:42;;;;;;;10.10;2.70;;;;;;;;;;110172;1259;22105;-83
2023/07/13 03:54:10;;;;;;;10.50;3.00;;;;;;;;;;110133;1280;22276;-85
2023/07/13 03:56:40;;;;;;;11.10;2.90;;;;;;;;;;110202;1280;22113;-86
2023/07/13 03:59:10;;;;;;;9.00;2.70;;;;;;;;;;110201;1279;22105;-86
2023/07/13 04:01:44;;;;;;;8.80;2.90;;;;;;;;;;110167;1262;22108;-87
2023/07/13 04:04:13;;;;;;;9.60;2.50;;;;;;;;;;110089;1280;22902;-86
2023/07/13 04:06:42;;;;;;;6.70;2.20;;;;;;;;;;110094;1280;22857;-86
2023/07/13 04:09:22;;;;;;;4.80;2.00;;;;;;;;;;110060;1280;22138;-86
2023/07/13 04:11:52;;;;;;;6.90;2.10;;;;;;;;;;110157;1262;22805;-85
2023/07/13 04:14:21;;;;;;;7.40;1.90;;;;;;;;;;110119;1280;22132;-85
2023/07/13 04:17:04;;;;;;;;;;;;;;;;;;;;;
2023/07/13 04:19:37;;;;;;;7.10;2.40;;;;;;;;;;110175;1278;22284;-84
2023/07/13 04:22:07;;;;;;;7.40;2.70;;;;;;;;;;110242;1262;22149;-85
2023/07/13 04:24:37;;;;;;;9.20;2.50;;;;;;;;;;110104;1280;22100;-85
2023/07/13 04:27:11;;;;;;;7.80;2.40;;;;;;;;;;110125;1280;22091;-86
2023/07/13 04:29:40;;;;;;;6.10;2.30;;;;;;;;;;110163;1280;22752;-85
2023/07/13 04:32:10;;;;;;;9.10;2.50;;;;;;;;;;110280;1261;22130;-85
2023/07/13 04:34:39;;;;;;;5.50;2.00;;;;;;;;;;110139;1280;22110;-85
2023/07/13 04:37:19;;;;;;;5.50;2.30;;;;;;;;;;110027;1280;22128;-85
2023/07/13 04:40:02;;;;;;;;;;;;;;;;;;;;;
2023/07/13 04:43:21;;;;;;;6.10;2.00;;;;;;;;;;109892;1268;22167;-85
2023/07/13 04:45:51;;;;;;;7.20;2.20;;;;;;;;;;109841;1286;22808;-85
2023/07/13 04:48:20;;;;;;;9.00;2.40;;;;;;;;;;109902;1285;22844;-87
2023/07/13 04:50:55;;;;;;;10.00;2.90;;;;;;;;;;109854;1286;22141;-87
2023/07/13 05:00:31;;;;;;;11.10;2.90;;;;;;;;;;104140;1292;545078;-92
2023/07/13 05:03:03;;;;;;;7.70;2.30;;;;;;;;;;106275;1287;25412;-88
2023/07/13 05:05:30;;;;;;;9.60;2.70;;;;;;;;;;106134;1287;22659;-87
2023/07/13 05:08:03;;;;;;;9.00;2.70;;;;;;;;;;106336;1287;22533;-90
2023/07/13 05:10:40;;;;;;;8.20;2.60;;;;;;;;;;106184;1269;22530;-90
2023/07/13 05:13:09;;;;;;;9.10;3.20;;;;;;;;;;103953;1284;3399173;-87
2023/07/13 05:15:36;;;;;;;7.80;3.10;;;;;;;;;;106441;1284;22533;-92
2023/07/13 05:18:06;;;;;;;8.70;3.40;;;;;;;;;;106459;1284;25344;-90
2023/07/13 05:20:35;;;;;;;10.90;4.10;;;;;;;;;;106971;1259;22546;-89
2023/07/13 05:23:03;;;;;;;9.50;4.20;;;;;;;;;;106940;1277;22651;-87
2023/07/13 05:25:30;;;;;;;8.90;4.50;;;;;;;;;;106926;1277;25392;-86
2023/07/13 05:28:02;;;;;;;9.10;4.20;;;;;;;;;;106912;1277;22528;-86
2023/07/13 05:30:53;;;;;;;9.70;3.40;;;;;;;;;;106891;1277;22530;-90
2023/07/13 05:33:28;;;;;;;8.60;3.10;;;;;;;;;;106910;1277;22547;-86
2023/07/13 05:36:00;;;;;;;7.00;2.70;;;;;;;;;;106952;1277;24309;-86
2023/07/13 05:38:33;;;;;;;6.80;2.80;;;;;;;;;;106856;1277;22598;-93
2023/07/13 05:41:05;;;;;;;9.50;2.80;;;;;;;;;;106938;1259;22523;-86
2023/07/13 05:43:39;;;;;;;6.80;3.00;;;;;;;;;;106939;1277;25356;-86
2023/07/13 05:46:06;;;;;;;5.80;2.60;;;;;;;;;;106933;1276;22518;-90
2023/07/13 05:48:36;;;;;;;8.00;3.20;;;;;;;;;;107255;1273;23185;-90
2023/07/13 05:51:13;;;;;;;7.30;2.50;;;;;;;;;;107253;1254;24240;-92
2023/07/13 05:53:42;;;;;;;5.60;2.60;;;;;;;;;;106975;1274;22520;-91
2023/07/13 05:56:25;;;;;;;9.90;2.90;;;;;;;;;;107199;1274;22520;-90
2023/07/13 05:58:54;;;;;;;8.00;2.70;;;;;;;;;;107241;1274;24246;-85
2023/07/13 06:01:27;;;;;;;7.50;3.30;;;;;;;;;;106976;1259;23866;-85
2023/07/13 06:03:59;;;;;;;7.70;3.30;;;;;;;;;;107195;1274;22533;-85
2023/07/13 06:06:29;;;;;;;11.30;3.30;;;;;;;;;;107219;1274;22558;-86
2023/07/13 06:09:07;;;;;;;10.90;3.20;;;;;;;;;;107140;1274;24226;-91
2023/07/13 06:11:37;;;;;;;10.60;3.10;;;;;;;;;;107191;1255;22591;-88
2023/07/13 06:14:04;;;;;;;10.10;2.80;;;;;;;;;;107248;1274;22642;-86
2023/07/13 06:16:46;;;;;;;6.20;2.40;;;;;;;;;;107215;1274;25287;-86
2023/07/13 06:19:15;;;;;;;7.20;2.70;;;;;;;;;;107063;1276;24253;-88
2023/07/13 06:21:45;;;;;;;9.70;2.70;;;;;;;;;;106998;1259;24261;-88
2023/07/13 06:24:11;;;;;;;7.10;2.90;;;;;;;;;;107007;1276;22518;-84
2023/07/13 06:26:41;;;;;;;8.50;3.10;;;;;;;;;;106967;1276;24243;-90
2023/07/13 06:29:18;;;;;;;6.90;2.90;;;;;;;;;;106938;1276;25354;-88
2023/07/13 06:31:45;;;;;;;7.30;3.00;;;;;;;;;;107078;1253;24267;-88
2023/07/13 06:34:14;;;;;;;8.40;2.80;;;;;;;;;;107064;1276;22516;-89
2023/07/13 06:36:41;;;;;;;6.90;2.60;;;;;;;;;;107108;1275;22530;-87
2023/07/13 06:39:08;;;;;;;7.10;2.60;;;;;;;;;;106939;1275;22993;-90
2023/07/13 06:41:58;;;;;;;;;;;;;;;;;;;;;
2023/07/13 06:44:25;;;;;;;7.50;2.60;;;;;;;;;;107235;1275;25353;-86
2023/07/13 06:46:52;;;;;;;7.50;2.60;;;;;;;;;;106988;1275;24317;-84
2023/07/13 06:49:18;;;;;;;9.70;4.90;;;;;;;;;;107189;1274;23114;-91
2023/07/13 06:51:45;;;;;;;25.50;13.60;;;;;;;;;;106960;1259;24190;-87
2023/07/13 06:54:17;;;;;;;42.00;22.50;;;;;;;;;;106957;1275;23110;-89
2023/07/13 06:56:47;;;;;;;29.50;18.50;;;;;;;;;;107177;1275;24211;-88
2023/07/13 06:59:20;;;;;;;19.00;10.90;;;;;;;;;;106844;1275;22526;-84
2023/07/13 07:01:47;;;;;;;10.60;5.30;;;;;;;;;;107166;1250;25626;-87
2023/07/13 07:04:24;;;;;;;10.20;3.70;;;;;;;;;;106987;1275;22483;-85
2023/07/13 07:06:52;;;;;;;8.30;3.40;;;;;;;;;;107179;1270;22530;-88
2023/07/13 07:09:18;;;;;;;6.10;2.90;;;;;;;;;;106973;1274;22543;-89
2023/07/13 07:11:48;;;;;;;9.60;2.40;;;;;;;;;;107452;1251;22526;-87
2023/07/13 07:14:15;;;;;;;9.20;2.60;;;;;;;;;;106868;1274;22514;-87
2023/07/13 07:16:47;;;;;;;6.70;3.00;;;;;;;;;;107208;1267;24321;-87
2023/07/13 07:19:19;;;;;;;5.50;2.40;;;;;;;;;;107220;1267;25078;-87
2023/07/13 07:21:54;;;;;;;8.00;2.60;;;;;;;;;;107217;1268;24219;-84
2023/07/13 07:24:21;;;;;;;8.00;3.00;;;;;;;;;;106969;1256;22519;-84
2023/07/13 07:26:48;;;;;;;8.30;3.10;;;;;;;;;;107201;1274;25538;-92
2023/07/13 07:29:15;;;;;;;13.00;3.30;;;;;;;;;;106999;1269;22478;-86
2023/07/13 07:31:51;;;;;;;9.00;3.30;;;;;;;;;;107075;1267;22524;-86
2023/07/13 07:34:29;;;;;;;9.30;3.00;;;;;;;;;;106839;1259;22520;-88
2023/07/13 07:37:02;;;;;;;11.90;3.60;;;;;;;;;;106957;1275;22523;-86
2023/07/13 07:39:29;;;;;;;8.30;3.50;;;;;;;;;;107033;1265;22539;-91
2023/07/13 07:41:58;;;;;;;11.20;3.80;;;;;;;;;;107234;1270;22521;-86
2023/07/13 07:44:35;;;;;;;7.00;3.30;;;;;;;;;;107101;1257;26097;-86
2023/07/13 07:47:02;;;;;;;9.60;3.20;;;;;;;;;;110650;1274;22213;-84
2023/07/13 07:49:34;;;;;;;9.00;3.50;;;;;;;;;;110589;1274;22841;-84
2023/07/13 07:52:01;;;;;;;7.10;2.80;;;;;;;;;;110604;1274;22244;-84
2023/07/13 07:54:31;;;;;;;8.00;2.70;;;;;;;;;;110788;1256;22108;-86
2023/07/13 07:57:08;;;;;;;7.10;3.00;;;;;;;;;;110514;1275;22797;-85
2023/07/13 07:59:36;;;;;;;7.90;2.50;;;;;;;;;;110555;1275;22310;-85
2023/07/13 08:02:05;;;;;;;8.30;2.80;;;;;;;;;;110574;1275;22172;-85
2023/07/13 08:04:40;;;;;;;6.10;2.50;;;;;;;;;;110891;1253;22121;-84
2023/07/13 08:07:17;;;;;;;5.80;2.50;;;;;;;;;;110424;1275;22826;-85
2023/07/13 08:09:53;;;;;;;7.10;1.90;;;;;;;;;;110528;1275;22140;-85
2023/07/13 08:12:20;;;;;;;5.00;2.00;;;;;;;;;;110436;1275;22091;-85
2023/07/13 08:14:50;;;;;;;5.90;2.30;;;;;;;;;;110792;1253;22104;-86
2023/07/13 08:17:33;;;;;;;5.90;2.40;;;;;;;;;;110420;1275;22149;-85
2023/07/13 08:20:04;;;;;;;5.20;2.20;;;;;;;;;;110590;1275;22820;-84
2023/07/13 08:22:31;;;;;;;4.90;2.20;;;;;;;;;;110422;1275;22128;-85
2023/07/13 08:24:59;;;;;;;6.10;2.00;;;;;;;;;;110702;1256;22184;-85
2023/07/13 08:27:27;;;;;;;5.30;2.40;;;;;;;;;;110405;1275;22116;-85
2023/07/13 08:30:08;;;;;;;6.40;2.10;;;;;;;;;;110580;1275;22070;-85
2023/07/13 08:32:36;;;;;;;8.30;2.40;;;;;;;;;;110547;1275;22870;-85
2023/07/13 08:35:03;;;;;;;4.70;2.00;;;;;;;;;;110746;1258;22168;-84
2023/07/13 08:37:33;;;;;;;4.90;1.80;;;;;;;;;;110533;1275;22130;-85
2023/07/13 08:39:59;;;;;;;6.20;2.10;;;;;;;;;;110415;1275;22251;-84
2023/07/13 08:42:29;;;;;;;6.20;2.50;;;;;;;;;;110426;1275;22101;-84
2023/07/13 08:45:42;;;;;;;5.20;2.00;;;;;;;;;;110253;1256;22172;-84
2023/07/13 08:48:13;;;;;;;6.20;2.00;;;;;;;;;;110131;1280;22635;-84
2023/07/13 08:51:02;;;;;;;3.90;1.70;;;;;;;;;;110160;1280;22166;-84
2023/07/13 08:53:36;;;;;;;4.90;2.20;;;;;;;;;;110173;1279;22166;-84
2023/07/13 08:56:10;;;;;;;5.00;2.20;;;;;;;;;;110498;1262;22380;-83
2023/07/13 08:58:48;;;;;;;;;;;;;;;;;;;;;
2023/07/13 09:01:33;;;;;;;4.90;2.00;;;;;;;;;;110046;1280;22952;-83
2023/07/13 09:04:24;;;;;;;3.90;1.80;;;;;;;;;;110044;1280;22038;-84
2023/07/13 09:06:57;;;;;;;4.10;1.90;;;;;;;;;;110156;1259;22876;-82
2023/07/13 09:09:50;;;;;;;6.10;1.90;;;;;;;;;;110143;1280;22131;-83
2023/07/13 09:12:45;;;;;;;5.60;1.70;;;;;;;;;;110140;1280;21659;-83
2023/07/13 09:15:24;;;;;;;4.20;1.80;;;;;;;;;;110138;1265;22882;-83
2023/07/13 09:17:59;;;;;;;6.90;2.10;;;;;;;;;;110481;1276;22155;-85
2023/07/13 09:20:31;;;;;;;6.90;1.80;;;;;;;;;;110499;1276;22061;-83
2023/07/13 09:23:06;;;;;;;5.00;1.90;;;;;;;;;;110396;1276;22139;-84
2023/07/13 09:25:34;;;;;;;7.20;2.20;;;;;;;;;;110598;1257;22178;-81
2023/07/13 09:28:13;;;;;;;6.10;2.00;;;;;;;;;;110408;1276;22294;-82
2023/07/13 09:31:06;;;;;;;6.30;1.50;;;;;;;;;;110515;1276;21973;-82
2023/07/13 09:33:34;;;;;;;7.40;1.90;;;;;;;;;;110353;1276;22118;-82
2023/07/13 09:36:23;;;;;;;4.00;1.60;;;;;;;;;;110581;1258;22765;-80
2023/07/13 09:39:21;;;;;;;6.30;1.80;;;;;;;;;;110510;1276;22396;-81
2023/07/13 09:42:03;;;;;;;7.10;2.00;;;;;;;;;;110381;1276;22111;-82
2023/07/13 09:44:50;;;;;;;4.90;1.50;;;;;;;;;;110497;1276;22161;-81
2023/07/13 09:47:27;;;;;;;3.80;1.40;;;;;;;;;;110993;1253;22125;-81
2023/07/13 09:49:55;;;;;;;4.20;1.60;;;;;;;;;;110461;1276;22109;-82
2023/07/13 09:52:22;;;;;;;3.60;1.20;;;;;;;;;;110477;1276;22900;-82
2023/07/13 09:54:51;;;;;;;5.00;1.60;;;;;;;;;;110349;1276;22156;-81
2023/07/13 09:57:19;;;;;;;4.10;1.50;;;;;;;;;;110541;1260;22037;-81
2023/07/13 09:59:52;;;;;;;3.80;1.40;;;;;;;;;;110462;1276;22111;-80
2023/07/13 10:02:33;;;;;;;3.10;1.30;;;;;;;;;;110266;1276;22965;-81
2023/07/13 10:05:05;;;;;;;3.60;1.20;;;;;;;;;;110301;1276;22140;-81
2023/07/13 10:07:37;;;;;;;4.20;1.10;;;;;;;;;;110803;1258;22250;-81
2023/07/13 10:10:15;;;;;;;3.80;1.50;;;;;;;;;;110462;1276;22081;-81
2023/07/13 10:12:43;;;;;;;4.90;1.60;;;;;;;;;;110310;1276;22104;-80
2023/07/13 10:15:18;;;;;;;5.00;1.30;;;;;;;;;;110419;1276;22746;-81
2023/07/13 10:17:46;;;;;;;6.00;1.80;;;;;;;;;;110797;1258;22120;-80
2023/07/13 10:20:14;;;;;;;4.40;1.60;;;;;;;;;;110461;1276;22128;-80
2023/07/13 10:23:00;;;;;;;6.10;1.60;;;;;;;;;;110432;1276;22097;-80
2023/07/13 10:25:31;;;;;;;5.20;1.60;;;;;;;;;;110604;1276;23033;-81
2023/07/13 10:28:01;;;;;;;4.30;1.50;;;;;;;;;;110612;1260;22111;-80
2023/07/13 10:30:35;;;;;;;5.00;1.50;;;;;;;;;;110441;1276;22156;-81
2023/07/13 10:33:03;;;;;;;4.30;1.70;;;;;;;;;;110436;1275;22459;-80
2023/07/13 10:35:31;;;;;;;6.20;1.80;;;;;;;;;;110546;1276;22077;-80
2023/07/13 10:38:05;;;;;;;6.70;1.50;;;;;;;;;;110652;1258;22115;-80
2023/07/13 10:40:42;;;;;;;7.50;1.70;;;;;;;;;;110299;1276;22140;-80
2023/07/13 10:43:30;;;;;;;3.70;1.40;;;;;;;;;;110562;1276;22102;-80
2023/07/13 10:45:59;;;;;;;7.80;1.30;;;;;;;;;;110461;1276;22964;-80
2023/07/13 10:48:29;;;;;;;5.40;1.70;;;;;;;;;;110728;1257;22840;-80
2023/07/13 10:50:58;;;;;;;5.00;1.50;;;;;;;;;;110429;1276;22871;-80
2023/07/13 10:53:25;;;;;;;5.00;1.30;;;;;;;;;;110423;1277;22029;-80
2023/07/13 10:55:52;;;;;;;5.40;1.40;;;;;;;;;;110454;1277;22091;-80
2023/07/13 10:58:29;;;;;;;5.00;1.70;;;;;;;;;;110617;1259;22122;-80
2023/07/13 11:00:56;;;;;;;4.20;1.60;;;;;;;;;;110148;1277;22120;-80
2023/07/13 11:03:23;;;;;;;3.60;1.30;;;;;;;;;;110436;1277;22094;-80
2023/07/13 11:05:53;;;;;;;5.90;1.70;;;;;;;;;;110356;1277;22790;-79
2023/07/13 11:08:31;;;;;;;4.60;1.80;;;;;;;;;;110580;1256;22154;-80
2023/07/13 11:10:58;;;;;;;8.30;1.60;;;;;;;;;;110470;1277;22115;-79
2023/07/13 11:13:45;;;;;;;4.20;1.40;;;;;;;;;;110284;1277;22109;-80
2023/07/13 11:16:13;;;;;;;5.10;1.80;;;;;;;;;;110349;1277;22412;-80
2023/07/13 11:18:39;;;;;;;4.70;1.60;;;;;;;;;;110634;1259;22132;-79
2023/07/13 11:21:26;;;;;;;5.50;1.50;;;;;;;;;;110299;1277;23147;-80
2023/07/13 11:23:54;;;;;;;5.50;1.40;;;;;;;;;;110293;1277;22105;-83
2023/07/13 11:26:41;;;;;;;4.70;1.60;;;;;;;;;;110347;1277;22871;-80
2023/07/13 11:29:23;;;;;;;4.50;1.30;;;;;;;;;;110797;1258;22109;-80
2023/07/13 11:31:54;;;;;;;4.70;1.50;;;;;;;;;;110434;1277;22115;-79
2023/07/13 11:34:28;;;;;;;5.50;1.30;;;;;;;;;;110293;1277;22092;-81
2023/07/13 11:36:56;;;;;;;4.90;1.30;;;;;;;;;;110282;1277;22777;-79
2023/07/13 11:39:30;;;;;;;4.40;1.50;;;;;;;;;;110482;1257;22105;-80
2023/07/13 11:42:03;;;;;;;6.20;1.50;;;;;;;;;;110248;1277;22587;-80
2023/07/13 11:44:30;;;;;;;7.80;2.10;;;;;;;;;;110397;1277;22809;-79
2023/07/13 11:47:04;;;;;;;4.60;1.70;;;;;;;;;;110270;1277;22101;-81
2023/07/13 11:49:45;;;;;;;6.70;1.50;;;;;;;;;;110741;1257;22155;-80
2023/07/13 11:52:14;;;;;;;6.80;1.70;;;;;;;;;;110343;1277;22150;-82
2023/07/13 11:54:58;;;;;;;6.10;1.70;;;;;;;;;;110203;1279;22862;-80
2023/07/13 11:57:33;;;;;;;4.30;1.60;;;;;;;;;;110314;1278;22135;-80
2023/07/13 12:00:01;;;;;;;3.60;1.80;;;;;;;;;;110247;1260;22107;-80
2023/07/13 12:02:28;;;;;;;7.80;1.80;;;;;;;;;;110314;1278;22206;-80
2023/07/13 12:04:55;;;;;;;7.00;1.80;;;;;;;;;;110321;1278;22177;-80
2023/07/13 12:07:23;;;;;;;6.90;2.00;;;;;;;;;;110291;1278;22102;-79
2023/07/13 12:09:50;;;;;;;5.00;1.80;;;;;;;;;;110293;1261;22957;-80
2023/07/13 12:12:18;;;;;;;5.10;2.10;;;;;;;;;;110292;1278;21721;-80
2023/07/13 12:14:45;;;;;;;4.40;1.50;;;;;;;;;;110287;1279;22108;-80
2023/07/13 12:17:22;;;;;;;3.90;1.50;;;;;;;;;;110185;1278;22087;-80
2023/07/13 12:19:51;;;;;;;8.60;1.70;;;;;;;;;;110255;1262;22092;-79
2023/07/13 12:22:28;;;;;;;5.00;1.60;;;;;;;;;;110281;1278;22161;-80
2023/07/13 12:24:56;;;;;;;3.10;1.30;;;;;;;;;;110310;1278;22098;-79
2023/07/13 12:27:28;;;;;;;5.50;2.00;;;;;;;;;;110169;1278;22128;-80
2023/07/13 12:30:05;;;;;;;4.40;1.40;;;;;;;;;;110463;1257;22937;-80
2023/07/13 12:32:32;;;;;;;6.20;1.90;;;;;;;;;;110305;1279;22795;-80
2023/07/13 12:35:13;;;;;;;5.60;1.70;;;;;;;;;;110284;1278;22111;-79
2023/07/13 12:37:52;;;;;;;5.30;1.50;;;;;;;;;;110192;1279;22072;-79
2023/07/13 12:40:28;;;;;;;4.00;1.40;;;;;;;;;;110499;1260;22110;-80
2023/07/13 12:42:58;;;;;;;6.40;1.80;;;;;;;;;;110310;1278;22110;-79
2023/07/13 12:45:26;;;;;;;6.40;1.80;;;;;;;;;;110314;1278;22091;-80
2023/07/13 12:47:55;;;;;;;5.00;2.00;;;;;;;;;;110118;1278;22091;-80
2023/07/13 12:50:31;;;;;;;5.60;1.70;;;;;;;;;;110461;1259;22121;-79
2023/07/13 12:53:03;;;;;;;4.50;1.60;;;;;;;;;;110302;1278;22112;-79
2023/07/13 12:55:32;;;;;;;4.90;1.50;;;;;;;;;;110188;1279;22647;-80
2023/07/13 12:58:14;;;;;;;5.30;1.90;;;;;;;;;;110189;1279;22865;-79
2023/07/13 13:00:41;;;;;;;7.10;1.80;;;;;;;;;;110388;1262;22109;-80
2023/07/13 13:03:13;;;;;;;4.60;1.50;;;;;;;;;;110194;1276;22107;-79
2023/07/13 13:05:42;;;;;;;3.60;1.40;;;;;;;;;;110308;1279;22094;-80
2023/07/13 13:08:11;;;;;;;6.00;1.70;;;;;;;;;;110099;1271;22133;-80
2023/07/13 13:10:39;;;;;;;6.20;1.40;;;;;;;;;;110338;1262;22135;-79
2023/07/13 13:13:08;;;;;;;6.90;2.00;;;;;;;;;;110159;1279;22227;-79
2023/07/13 13:15:37;;;;;;;3.50;1.50;;;;;;;;;;110178;1279;22104;-79
2023/07/13 13:18:09;;;;;;;8.20;1.60;;;;;;;;;;110197;1279;22324;-80
2023/07/13 13:20:37;;;;;;;5.40;1.30;;;;;;;;;;110406;1260;22124;-80
2023/07/13 13:23:05;;;;;;;4.50;1.70;;;;;;;;;;110276;1279;22112;-79
2023/07/13 13:25:32;;;;;;;3.90;1.50;;;;;;;;;;110286;1275;22107;-79
2023/07/13 13:28:01;;;;;;;4.30;1.60;;;;;;;;;;110248;1279;22108;-79
2023/07/13 13:30:29;;;;;;;5.30;1.50;;;;;;;;;;110294;1260;22128;-79
2023/07/13 13:32:56;;;;;;;6.60;1.60;;;;;;;;;;110227;1279;22321;-79
2023/07/13 13:35:26;;;;;;;5.00;1.30;;;;;;;;;;110299;1279;22119;-79
2023/07/13 13:37:54;;;;;;;5.00;1.70;;;;;;;;;;110277;1279;22115;-80
2023/07/13 13:40:24;;;;;;;6.20;1.70;;;;;;;;;;110275;1260;22173;-79
2023/07/13 13:42:53;;;;;;;6.30;1.60;;;;;;;;;;110254;1279;22115;-79
2023/07/13 13:45:21;;;;;;;4.40;1.70;;;;;;;;;;110232;1279;22185;-79
2023/07/13 13:47:49;;;;;;;4.10;1.50;;;;;;;;;;110227;1279;22869;-79
2023/07/13 13:50:18;;;;;;;4.40;1.60;;;;;;;;;;110219;1256;22005;-79
2023/07/13 13:52:48;;;;;;;4.20;1.60;;;;;;;;;;110114;1279;22794;-78
2023/07/13 13:55:18;;;;;;;4.70;1.40;;;;;;;;;;110147;1279;22111;-79
2023/07/13 13:57:49;;;;;;;4.80;1.50;;;;;;;;;;110118;1280;22192;-77
2023/07/13 14:00:19;;;;;;;4.50;1.40;;;;;;;;;;110194;1280;22386;-80
2023/07/13 14:02:54;;;;;;;5.80;1.90;;;;;;;;;;110144;1263;22927;-79
2023/07/13 14:05:25;;;;;;;6.20;1.80;;;;;;;;;;110148;1279;22118;-79
2023/07/13 14:07:56;;;;;;;3.90;1.40;;;;;;;;;;110104;1279;22124;-81
2023/07/13 14:10:26;;;;;;;5.00;1.30;;;;;;;;;;110118;1279;22806;-80
2023/07/13 14:12:57;;;;;;;4.70;2.10;;;;;;;;;;110181;1262;22128;-79
2023/07/13 14:15:28;;;;;;;5.60;1.60;;;;;;;;;;110094;1279;22917;-79
2023/07/13 14:17:58;;;;;;;4.50;1.60;;;;;;;;;;110086;1280;22806;-79
2023/07/13 14:20:27;;;;;;;4.30;1.40;;;;;;;;;;110238;1279;22774;-79
2023/07/13 14:22:57;;;;;;;3.70;1.30;;;;;;;;;;110541;1262;22873;-79
2023/07/13 14:25:29;;;;;;;4.00;1.20;;;;;;;;;;110247;1276;22115;-79
2023/07/13 14:28:00;;;;;;;3.90;1.50;;;;;;;;;;110113;1280;22099;-80
2023/07/13 14:30:33;;;;;;;4.20;1.50;;;;;;;;;;110081;1280;22219;-79
2023/07/13 14:33:02;;;;;;;5.50;1.60;;;;;;;;;;110425;1262;22062;-79
2023/07/13 14:35:33;;;;;;;3.60;1.30;;;;;;;;;;110223;1280;22176;-79
2023/07/13 14:38:01;;;;;;;4.10;1.60;;;;;;;;;;110225;1279;22943;-79
2023/07/13 14:40:31;;;;;;;4.70;2.00;;;;;;;;;;110157;1280;22764;-79
2023/07/13 14:43:01;;;;;;;5.90;1.80;;;;;;;;;;110395;1264;22115;-78
2023/07/13 14:45:32;;;;;;;3.30;1.20;;;;;;;;;;110221;1280;22896;-78
2023/07/13 14:48:01;;;;;;;3.80;1.40;;;;;;;;;;110148;1279;22192;-80
2023/07/13 14:50:32;;;;;;;2.80;1.30;;;;;;;;;;110109;1280;22108;-79
2023/07/13 15:00:37;;;;;;;4.30;1.30;;;;;;;;;;103947;1311;549373;-80
2023/07/13 15:03:06;;;;;;;5.40;1.50;;;;;;;;;;106478;1266;24259;-86
2023/07/13 15:05:33;;;;;;;3.70;1.60;;;;;;;;;;106468;1280;22538;-83
2023/07/13 15:08:03;;;;;;;4.30;1.40;;;;;;;;;;106190;1285;23001;-84
2023/07/13 15:10:31;;;;;;;4.90;1.30;;;;;;;;;;106098;1267;22554;-84
2023/07/13 15:13:03;;;;;;;5.20;1.50;;;;;;;;;;103783;1284;3343980;-85
2023/07/13 15:15:32;;;;;;;6.30;1.70;;;;;;;;;;106612;1284;22550;-82
2023/07/13 15:17:59;;;;;;;3.70;1.40;;;;;;;;;;106561;1284;24375;-84
2023/07/13 15:20:29;;;;;;;7.20;1.90;;;;;;;;;;106535;1266;24250;-85
2023/07/13 15:22:56;;;;;;;6.00;1.90;;;;;;;;;;106488;1283;25377;-84
2023/07/13 15:25:24;;;;;;;5.10;1.90;;;;;;;;;;106534;1282;22538;-83
2023/07/13 15:27:51;;;;;;;3.80;1.60;;;;;;;;;;106469;1282;25626;-84